Singac, New Jersey
Current Conditions -  °F | °C
As of 12:42 AM on Wednesday 22 Oct 2014 (Local Time) from KCDW Reporting Station
Broken Clouds Broken Clouds  
Wind Chill: 53°   Ceiling: 3300
Heat Index: 53°   Visibility: 9mi
Dew Point: 50°   Wind: 3mph
Humidity: 89%   Direction: NA
Pressure: 29.92"   Gusts: NA
Location:  40.8835°N, 74.2057°W
Report Text: KCDW 220442Z VRB03KT 9SM FEW022 SCT027 BKN033 12/10 A2992 RMK AO2 T01170100
Loading
Personal Weather Stations






























Interactive Weather Map
Tropical Storm Tracking
New forecast layout! Learn more

10-Day Weather Forecast

Advertisements
Track Severe Weather on mobile